createdAt,value
2022-10-20T06:02:33.312Z,12.23
2022-10-20T06:05:02.273Z,11.20
2022-10-20T06:07:33.014Z,11.25
2022-10-20T06:10:04.266Z,12.43
2022-10-20T06:12:36.990Z,11.73
2022-10-20T06:15:04.946Z,11.57
2022-10-20T06:17:32.673Z,12.15
2022-10-20T06:20:02.744Z,12.07
2022-10-20T06:22:31.170Z,12.48
2022-10-20T06:24:58.910Z,12.25
2022-10-20T06:27:28.563Z,12.20
2022-10-20T06:29:56.088Z,12.97
2022-10-20T06:32:27.365Z,12.75
2022-10-20T06:34:55.076Z,11.65
2022-10-20T06:37:22.764Z,12.32
2022-10-20T06:39:50.465Z,12.00
2022-10-20T06:42:18.780Z,12.25
2022-10-20T06:44:46.647Z,12.48
2022-10-20T06:47:14.345Z,12.90
2022-10-20T06:49:42.751Z,12.63
2022-10-20T06:52:12.188Z,12.40
2022-10-20T06:54:41.996Z,11.73
2022-10-20T06:57:17.912Z,11.07
2022-10-20T06:59:45.627Z,11.93
2022-10-20T07:02:13.292Z,11.35
2022-10-20T07:04:44.663Z,11.52
2022-10-20T07:07:12.464Z,11.88
2022-10-20T07:09:40.341Z,12.10
2022-10-20T07:12:08.321Z,12.60
2022-10-20T07:14:37.967Z,11.77
2022-10-20T07:17:05.664Z,11.83
2022-10-20T07:19:33.908Z,12.52
2022-10-20T07:22:02.590Z,12.05
2022-10-20T07:24:32.435Z,12.10
2022-10-20T07:27:02.091Z,12.77
2022-10-20T07:29:31.196Z,10.95
2022-10-20T07:32:01.303Z,12.85
2022-10-20T07:34:30.494Z,11.48
2022-10-20T07:37:02.784Z,12.10
2022-10-20T07:39:32.746Z,11.77
2022-10-20T07:42:02.752Z,12.18
2022-10-20T07:44:33.730Z,11.57
2022-10-20T07:47:04.331Z,13.32
2022-10-20T07:52:12.881Z,10.88
2022-10-20T07:54:43.426Z,12.13
2022-10-20T07:57:11.633Z,12.15
2022-10-20T07:59:39.970Z,11.80
2022-10-20T08:02:08.066Z,11.57
2022-10-20T08:04:36.131Z,10.55
2022-10-20T08:07:03.743Z,10.60
2022-10-20T08:09:33.683Z,11.13
2022-10-20T08:12:02.908Z,10.43
2022-10-20T08:14:36.385Z,10.90
2022-10-20T08:17:04.676Z,10.75
2022-10-20T08:20:00.166Z,10.45
2022-10-20T08:22:28.118Z,10.93
2022-10-20T08:24:56.639Z,11.40
2022-10-20T08:27:25.474Z,10.77
2022-10-20T08:30:00.308Z,11.18
2022-10-20T08:32:34.463Z,10.98
2022-10-20T08:35:13.735Z,10.80
2022-10-20T08:37:41.603Z,10.98
2022-10-20T08:40:42.787Z,10.15
2022-10-20T08:43:18.504Z,10.55
2022-10-20T08:45:47.241Z,10.63
2022-10-20T08:48:20.824Z,10.32
2022-10-20T08:50:53.556Z,9.82
2022-10-20T08:53:28.739Z,10.43
2022-10-20T08:56:00.063Z,10.52
2022-10-20T08:58:30.323Z,9.77
2022-10-20T09:01:12.439Z,10.05
2022-10-20T09:03:41.514Z,10.57
2022-10-20T09:06:11.221Z,9.77
2022-10-20T09:08:40.110Z,9.70
2022-10-20T09:11:12.926Z,10.57
2022-10-20T09:13:40.813Z,10.70
2022-10-20T09:16:27.350Z,9.60
2022-10-20T09:19:08.292Z,10.05
2022-10-20T09:21:36.968Z,10.45
2022-10-20T09:24:06.039Z,10.50
2022-10-20T09:26:54.597Z,10.57
2022-10-20T09:29:35.985Z,10.68
2022-10-20T09:32:22.421Z,10.30
2022-10-20T09:34:51.603Z,10.80
2022-10-20T09:37:21.079Z,10.60
2022-10-20T09:39:55.818Z,9.90
2022-10-20T09:42:33.022Z,11.20
2022-10-20T09:45:03.227Z,10.55
2022-10-20T09:47:31.341Z,11.25
2022-10-20T09:50:04.689Z,10.02
2022-10-20T09:52:47.716Z,10.55
2022-10-20T09:55:25.700Z,10.93
2022-10-20T09:57:54.671Z,10.82
2022-10-20T10:00:36.718Z,10.98
2022-10-20T10:03:12.376Z,11.30
2022-10-20T10:05:41.294Z,10.88
2022-10-20T10:08:16.335Z,11.55
2022-10-20T10:10:44.928Z,11.07
2022-10-20T10:13:25.141Z,11.20
2022-10-20T10:16:02.761Z,10.95
2022-10-20T10:18:32.237Z,10.43
2022-10-20T10:21:02.529Z,10.40
2022-10-20T10:23:32.203Z,11.15
2022-10-20T10:26:02.196Z,10.48
2022-10-20T10:28:31.372Z,10.57
2022-10-20T10:31:28.337Z,10.45
2022-10-20T10:34:02.773Z,11.05
2022-10-20T10:36:37.250Z,10.75
2022-10-20T10:39:07.430Z,10.65
2022-10-20T10:41:35.033Z,11.55
2022-10-20T10:44:05.998Z,11.27
2022-10-20T10:46:37.604Z,11.35
2022-10-20T10:49:20.211Z,11.55
2022-10-20T10:52:01.973Z,10.95
2022-10-20T10:54:49.794Z,11.20
2022-10-20T10:57:17.630Z,11.50
2022-10-20T10:59:46.028Z,11.82
2022-10-20T11:02:32.647Z,11.52
2022-10-20T11:05:23.183Z,11.60
2022-10-20T11:07:56.609Z,11.45
2022-10-20T11:10:30.617Z,11.70
2022-10-20T11:13:07.778Z,11.60
2022-10-20T11:15:40.923Z,12.23
2022-10-20T11:18:27.623Z,12.52
2022-10-20T11:20:58.615Z,12.35
2022-10-20T11:23:45.821Z,12.98
2022-10-20T11:26:19.607Z,13.38
2022-10-20T11:28:48.531Z,12.63
2022-10-20T11:31:20.790Z,14.80
2022-10-20T11:33:52.315Z,13.85
2022-10-20T11:36:22.764Z,14.05
2022-10-20T11:38:53.889Z,13.63
2022-10-20T11:41:28.245Z,14.30
2022-10-20T11:44:00.374Z,15.05
2022-10-20T11:46:40.015Z,15.48
2022-10-20T11:49:17.423Z,15.23
2022-10-20T11:51:45.517Z,15.32
2022-10-20T11:54:28.725Z,16.00
2022-10-20T11:56:57.935Z,15.85
2022-10-20T12:13:34.389Z,15.57
2022-10-20T12:16:04.699Z,16.13
2022-10-20T12:21:02.460Z,16.08
2022-10-20T12:23:45.893Z,16.30
2022-10-20T12:26:38.689Z,15.65
2022-10-20T12:29:28.355Z,16.20
2022-10-20T12:32:14.918Z,17.17
2022-10-20T12:34:43.700Z,17.98
2022-10-20T12:37:30.470Z,17.73
2022-10-20T12:40:20.085Z,18.52
2022-10-20T12:42:55.745Z,17.73
2022-10-20T12:45:45.783Z,17.52
2022-10-20T12:48:21.797Z,17.58
2022-10-20T12:50:51.685Z,17.58
2022-10-20T12:53:19.598Z,17.58
2022-10-20T12:56:06.319Z,18.73
2022-10-20T12:58:37.942Z,17.77
2022-10-20T13:01:08.042Z,18.05
2022-10-20T13:03:38.840Z,18.02
2022-10-20T13:06:28.028Z,19.15
2022-10-20T13:09:04.959Z,17.55
2022-10-20T13:11:42.527Z,18.20
2022-10-20T13:14:15.362Z,18.92
2022-10-20T13:16:52.709Z,18.38
2022-10-20T13:19:24.563Z,18.80
2022-10-20T13:21:54.286Z,19.08
2022-10-20T13:24:23.103Z,19.20
2022-10-20T13:26:54.609Z,19.33
2022-10-20T13:29:30.358Z,18.70
2022-10-20T13:32:47.777Z,20.15
2022-10-20T13:35:31.171Z,21.45
2022-10-20T13:38:02.911Z,20.92
2022-10-20T13:40:38.259Z,21.13
2022-10-20T13:43:18.420Z,21.13
2022-10-20T13:45:55.606Z,20.80
2022-10-20T13:48:32.618Z,19.80
2022-10-20T13:51:04.706Z,20.17
2022-10-20T13:53:35.163Z,20.17
2022-10-20T13:58:34.083Z,18.45
2022-10-20T14:01:04.087Z,18.33
2022-10-20T14:03:37.176Z,17.95
2022-10-20T14:06:04.837Z,16.98
2022-10-20T14:08:43.273Z,17.25
2022-10-20T14:11:13.016Z,17.60
2022-10-20T14:13:40.796Z,17.25
2022-10-20T14:16:17.775Z,16.88
2022-10-20T14:18:45.698Z,17.65
2022-10-20T14:21:20.237Z,18.38
2022-10-20T14:23:50.949Z,17.63
2022-10-20T14:26:24.765Z,18.20
2022-10-20T14:28:52.881Z,18.40
2022-10-20T14:31:25.030Z,18.27
2022-10-20T14:33:53.391Z,17.60
2022-10-20T14:39:02.222Z,16.80
2022-10-20T14:41:34.804Z,16.30
2022-10-20T14:44:07.073Z,17.20
2022-10-20T14:46:41.967Z,15.90
2022-10-20T14:49:28.566Z,16.05
2022-10-20T14:52:04.334Z,15.13
2022-10-20T14:54:39.588Z,15.93
2022-10-20T14:57:11.117Z,15.00
2022-10-20T14:59:51.103Z,15.43
2022-10-20T15:02:22.210Z,16.45
2022-10-20T15:04:54.317Z,14.82
2022-10-20T15:07:24.602Z,15.07
2022-10-20T15:10:05.310Z,14.15
2022-10-20T15:12:37.913Z,14.27
2022-10-20T15:15:15.135Z,14.73
2022-10-20T15:17:43.342Z,15.60
2022-10-20T15:20:30.762Z,14.45
2022-10-20T15:23:00.443Z,15.43
2022-10-20T15:25:35.989Z,14.57
2022-10-20T15:28:07.028Z,14.95
2022-10-20T15:30:35.081Z,14.85
2022-10-20T15:33:22.182Z,14.63
2022-10-20T15:36:22.919Z,14.82
2022-10-20T15:39:37.937Z,14.93
2022-10-20T15:42:11.216Z,15.00
2022-10-20T15:44:44.687Z,14.88
2022-10-20T15:47:13.480Z,16.48
2022-10-20T15:49:47.493Z,15.98
2022-10-20T15:52:22.591Z,16.17
2022-10-20T15:54:50.568Z,15.48
2022-10-20T15:57:19.894Z,16.13
2022-10-20T15:59:49.800Z,15.90
2022-10-20T16:02:17.570Z,16.23
2022-10-20T16:04:45.484Z,16.35
2022-10-20T16:07:14.517Z,15.70
2022-10-20T16:09:44.790Z,15.45
2022-10-20T16:14:40.664Z,16.48
2022-10-20T16:17:08.555Z,16.88
2022-10-20T16:19:39.047Z,15.80
2022-10-20T16:24:35.957Z,15.50
2022-10-20T16:27:05.894Z,15.80
2022-10-20T16:29:34.843Z,17.67
2022-10-20T16:32:03.169Z,17.23
2022-10-20T16:34:33.964Z,18.20
2022-10-20T16:37:04.994Z,17.13
2022-10-20T16:39:34.680Z,17.98
2022-10-20T16:42:05.979Z,19.00
2022-10-20T16:44:34.639Z,16.75
2022-10-20T16:47:02.633Z,16.30
2022-10-20T16:49:30.907Z,17.13
2022-10-20T16:52:01.247Z,17.42
2022-10-20T16:54:31.753Z,17.30
2022-10-20T16:59:30.173Z,17.67
2022-10-20T17:01:58.087Z,17.80
2022-10-20T17:04:26.759Z,17.27
2022-10-20T17:06:54.338Z,17.63
2022-10-20T17:09:26.053Z,16.30
2022-10-20T17:11:53.961Z,17.60
2022-10-20T17:14:21.892Z,16.98
2022-10-20T17:16:49.730Z,18.63
2022-10-20T17:19:17.523Z,17.75
2022-10-20T17:21:50.229Z,16.95
2022-10-20T17:24:21.995Z,17.00
2022-10-20T17:26:51.967Z,21.23
2022-10-20T17:29:25.136Z,16.88
2022-10-20T17:31:54.230Z,17.67
2022-10-20T17:34:23.358Z,17.50
2022-10-20T17:36:52.884Z,17.17
2022-10-20T17:39:26.007Z,17.23
2022-10-20T17:41:57.162Z,17.25
2022-10-20T17:44:25.501Z,16.35
2022-10-20T17:46:53.360Z,17.45
2022-10-20T17:49:21.466Z,17.08
2022-10-20T17:51:54.688Z,16.58
2022-10-20T17:54:23.451Z,16.60
2022-10-20T17:56:52.611Z,18.05
2022-10-20T17:59:22.592Z,17.52
2022-10-20T18:01:50.287Z,16.83
2022-10-20T18:04:22.692Z,16.55
2022-10-20T18:06:51.124Z,16.35
2022-10-20T18:09:19.673Z,16.42
2022-10-20T18:11:50.011Z,17.73
2022-10-20T18:14:18.200Z,18.38
2022-10-20T18:16:46.041Z,17.42
2022-10-20T18:19:17.024Z,19.25
2022-10-20T18:21:47.211Z,17.38
2022-10-20T18:24:26.334Z,18.07
2022-10-20T18:27:01.373Z,18.30
2022-10-20T18:29:30.060Z,18.15
2022-10-20T18:31:58.197Z,17.10
2022-10-20T18:34:26.850Z,19.10
2022-10-20T18:36:58.589Z,18.23
2022-10-20T18:39:28.979Z,18.00
2022-10-20T18:41:59.066Z,17.90
2022-10-20T18:46:58.540Z,18.52
2022-10-20T18:49:26.564Z,18.55
2022-10-20T18:51:54.306Z,17.35
2022-10-20T18:54:24.051Z,17.67
2022-10-20T18:56:51.943Z,17.73
2022-10-20T18:59:20.035Z,18.98
2022-10-20T19:01:49.154Z,18.15
2022-10-20T19:04:17.319Z,18.98
2022-10-20T19:06:46.601Z,18.50
2022-10-20T19:09:16.257Z,18.42
2022-10-20T19:11:45.333Z,17.77
2022-10-20T19:14:13.962Z,18.35
2022-10-20T19:16:46.355Z,18.75
2022-10-20T19:19:15.330Z,18.38
2022-10-20T19:21:44.511Z,17.08
2022-10-20T19:24:21.387Z,18.23
2022-10-20T19:27:24.567Z,20.15
2022-10-20T19:29:42.946Z,18.02
2022-10-20T19:32:15.435Z,18.23
2022-10-20T19:35:33.368Z,17.65
2022-10-20T19:38:08.069Z,17.90
2022-10-20T19:40:36.655Z,18.17
2022-10-20T19:43:05.114Z,17.83
2022-10-20T19:45:36.758Z,17.77
2022-10-20T19:48:06.767Z,18.70
2022-10-20T19:50:35.393Z,17.13
2022-10-20T19:53:38.125Z,19.50
2022-10-20T19:56:32.325Z,19.10
2022-10-20T19:59:07.025Z,19.57
2022-10-20T20:01:36.337Z,18.27
2022-10-20T20:04:06.601Z,18.23
2022-10-20T20:06:36.149Z,17.55
2022-10-20T20:09:08.303Z,18.05
2022-10-20T20:11:36.594Z,17.40
2022-10-20T20:14:12.857Z,17.33
2022-10-20T20:16:40.927Z,17.38
2022-10-20T20:19:08.713Z,17.58
2022-10-20T20:21:36.595Z,17.30
2022-10-20T20:24:05.478Z,17.00
2022-10-20T20:26:39.511Z,18.83
2022-10-20T20:29:10.956Z,21.27
2022-10-20T20:31:38.648Z,20.83
2022-10-20T20:34:10.078Z,18.42
2022-10-20T20:36:39.518Z,19.05
2022-10-20T20:39:09.715Z,18.88
2022-10-20T20:41:41.113Z,18.77
2022-10-20T20:44:09.033Z,18.67
2022-10-20T20:46:37.630Z,18.55
2022-10-20T20:49:06.655Z,18.52
2022-10-20T20:51:35.179Z,18.98
2022-10-20T20:54:03.594Z,19.38
2022-10-20T20:56:32.800Z,18.85
2022-10-20T20:59:01.477Z,19.25
2022-10-20T21:01:32.016Z,19.33
2022-10-20T21:04:04.343Z,19.45
2022-10-20T21:06:49.529Z,19.77
2022-10-20T21:09:27.094Z,19.27
2022-10-20T21:11:55.176Z,20.27
2022-10-20T21:14:26.006Z,19.38
2022-10-20T21:16:53.980Z,20.15
2022-10-20T21:19:22.505Z,20.50
2022-10-20T21:21:50.966Z,20.35
2022-10-20T21:24:22.505Z,19.85
2022-10-20T21:26:50.931Z,19.80
2022-10-20T21:29:18.754Z,18.88
2022-10-20T21:31:47.835Z,20.00
2022-10-20T21:34:17.629Z,19.77
2022-10-20T21:36:45.256Z,19.05
2022-10-20T21:39:20.960Z,19.95
2022-10-20T21:42:02.265Z,19.42
2022-10-20T21:44:37.908Z,20.27
2022-10-20T21:47:05.819Z,19.52
2022-10-20T21:49:33.875Z,18.17
2022-10-20T21:52:03.483Z,20.95
2022-10-20T21:54:37.421Z,19.25
2022-10-20T21:57:07.319Z,19.83
2022-10-20T21:59:34.984Z,20.88
2022-10-20T22:02:03.977Z,20.52
2022-10-20T22:04:35.027Z,20.25
2022-10-20T22:07:03.331Z,19.42
2022-10-20T22:09:32.618Z,20.20
2022-10-20T22:12:02.626Z,19.77
2022-10-20T22:14:33.101Z,21.20
2022-10-20T22:17:02.452Z,20.90
2022-10-20T22:19:42.562Z,20.65
2022-10-20T22:22:13.411Z,20.48
2022-10-20T22:24:42.462Z,20.55
2022-10-20T22:27:20.021Z,19.67
2022-10-20T22:30:04.539Z,20.20
2022-10-20T22:32:32.980Z,19.88
2022-10-20T22:35:02.665Z,20.83
2022-10-20T22:37:32.347Z,20.45
2022-10-20T22:40:08.836Z,21.20
2022-10-20T22:42:36.897Z,20.63
2022-10-20T22:45:04.803Z,19.45
2022-10-20T22:47:33.782Z,19.05
2022-10-20T22:50:01.671Z,20.48
2022-10-20T22:52:36.112Z,19.10
2022-10-20T22:55:04.004Z,19.50
2022-10-20T22:57:33.601Z,19.67
2022-10-20T23:00:01.762Z,20.43
2022-10-20T23:02:32.091Z,19.83
2022-10-20T23:05:02.475Z,18.77
2022-10-20T23:07:35.290Z,20.08
2022-10-20T23:10:05.221Z,19.50
2022-10-20T23:12:33.585Z,19.35
2022-10-20T23:15:04.213Z,18.73
2022-10-20T23:17:32.782Z,19.13
2022-10-20T23:20:02.591Z,18.38
2022-10-20T23:22:33.403Z,20.45
2022-10-20T23:25:04.218Z,19.35
2022-10-20T23:27:38.568Z,19.02
2022-10-20T23:30:06.741Z,19.08
2022-10-20T23:32:34.560Z,19.50
2022-10-20T23:35:03.275Z,21.63
2022-10-20T23:37:33.239Z,19.73
2022-10-20T23:40:02.478Z,19.65
2022-10-20T23:42:33.315Z,18.73
2022-10-20T23:45:02.685Z,18.90
2022-10-20T23:47:33.914Z,19.42
2022-10-20T23:50:03.160Z,20.10
2022-10-20T23:52:33.964Z,18.67
2022-10-20T23:55:15.572Z,18.70
2022-10-20T23:57:43.509Z,18.85
